createdAt,value
2023-04-24T00:00:41.600Z,91955.00
2023-04-24T00:01:41.640Z,91955.00
2023-04-24T00:02:41.768Z,91959.00
2023-04-24T00:03:41.786Z,91959.00
2023-04-24T00:04:41.703Z,91961.00
2023-04-24T00:05:41.641Z,91957.00
2023-04-24T00:06:41.654Z,91961.00
2023-04-24T00:07:41.650Z,91957.00
2023-04-24T00:08:41.662Z,91959.00
2023-04-24T00:09:41.905Z,91961.00
2023-04-24T00:10:41.691Z,91959.00
2023-04-24T00:11:41.708Z,91961.00
2023-04-24T00:12:41.725Z,91961.00
2023-04-24T00:13:41.676Z,91962.00
2023-04-24T00:14:41.660Z,91962.00
2023-04-24T00:15:41.651Z,91961.00
2023-04-24T00:16:41.667Z,91966.00
2023-04-24T00:17:41.672Z,91968.00
2023-04-24T00:18:41.604Z,91970.00
2023-04-24T00:19:41.857Z,91970.00
2023-04-24T00:20:41.573Z,91974.00
2023-04-24T00:21:41.555Z,91974.00
2023-04-24T00:22:41.557Z,91970.00
2023-04-24T00:23:41.534Z,91974.00
2023-04-24T00:24:41.524Z,91974.00
2023-04-24T00:25:41.505Z,91972.00
2023-04-24T00:26:41.486Z,91974.00
2023-04-24T00:27:41.472Z,91970.00
2023-04-24T00:28:41.455Z,91974.00
2023-04-24T00:29:41.603Z,91972.00
2023-04-24T00:30:41.429Z,91970.00
2023-04-24T00:31:41.461Z,91970.00
2023-04-24T00:32:41.503Z,91970.00
2023-04-24T00:33:41.463Z,91964.00
2023-04-24T00:34:41.481Z,91966.00
2023-04-24T00:35:41.474Z,91964.00
2023-04-24T00:36:41.525Z,91964.00
2023-04-24T00:37:41.515Z,91970.00
2023-04-24T00:38:41.529Z,91970.00
2023-04-24T00:39:41.782Z,91970.00
2023-04-24T00:40:41.538Z,91970.00
2023-04-24T00:41:41.547Z,91970.00
2023-04-24T00:42:41.564Z,91972.00
2023-04-24T00:43:41.556Z,91972.00
2023-04-24T00:44:41.575Z,91974.00
2023-04-24T00:45:41.579Z,91972.00
2023-04-24T00:46:41.635Z,91974.00
2023-04-24T00:47:41.631Z,91974.00
2023-04-24T00:48:41.597Z,91970.00
2023-04-24T00:49:41.846Z,91972.00
2023-04-24T00:50:41.584Z,91972.00
2023-04-24T00:51:41.579Z,91972.00
2023-04-24T00:52:41.649Z,91972.00
2023-04-24T00:53:41.578Z,91974.00
2023-04-24T00:54:41.554Z,91970.00
2023-04-24T00:55:41.544Z,91974.00
2023-04-24T00:56:41.521Z,91972.00
2023-04-24T00:57:41.483Z,91970.00
2023-04-24T00:58:41.459Z,91970.00
2023-04-24T00:59:41.786Z,91970.00
2023-04-24T01:00:41.412Z,91970.00
2023-04-24T01:01:41.432Z,91972.00
2023-04-24T01:02:41.506Z,91972.00
2023-04-24T01:03:41.430Z,91970.00
2023-04-24T01:04:41.435Z,91970.00
2023-04-24T01:05:41.293Z,91972.00
2023-04-24T01:06:41.262Z,91972.00
2023-04-24T01:07:41.247Z,91972.00
2023-04-24T01:08:41.231Z,91976.00
2023-04-24T01:09:41.507Z,91976.00
2023-04-24T01:10:41.205Z,91982.00
2023-04-24T01:11:41.179Z,91978.00
2023-04-24T01:12:41.158Z,91982.00
2023-04-24T01:13:41.142Z,91984.00
2023-04-24T01:14:41.117Z,91984.00
2023-04-24T01:15:41.154Z,91984.00
2023-04-24T01:16:41.077Z,91980.00
2023-04-24T01:17:41.156Z,91982.00
2023-04-24T01:18:41.048Z,91984.00
2023-04-24T01:19:41.542Z,91980.00
2023-04-24T01:20:41.009Z,91982.00
2023-04-24T01:21:40.962Z,91984.00
2023-04-24T01:22:40.954Z,91984.00
2023-04-24T01:23:40.966Z,91990.00
2023-04-24T01:24:40.919Z,91988.00
2023-04-24T01:25:40.877Z,91990.00
2023-04-24T01:26:40.866Z,91988.00
2023-04-24T01:27:40.835Z,91986.00
2023-04-24T01:28:40.838Z,91990.00
2023-04-24T01:29:40.974Z,91990.00
2023-04-24T01:30:40.773Z,91990.00
2023-04-24T01:31:40.786Z,91990.00
2023-04-24T01:32:40.751Z,91988.00
2023-04-24T01:33:40.716Z,91988.00
2023-04-24T01:34:40.690Z,91988.00
2023-04-24T01:35:40.668Z,91984.00
2023-04-24T01:36:40.649Z,91984.00
2023-04-24T01:37:40.627Z,91986.00
2023-04-24T01:38:40.609Z,91990.00
2023-04-24T01:39:40.734Z,91986.00
2023-04-24T01:40:40.574Z,91984.00
2023-04-24T01:41:40.563Z,91986.00
2023-04-24T01:42:40.518Z,91984.00
2023-04-24T01:43:40.512Z,91986.00
2023-04-24T01:44:40.492Z,91984.00
2023-04-24T01:45:40.506Z,91982.00
2023-04-24T01:46:40.476Z,91978.00
2023-04-24T01:47:40.469Z,91982.00
2023-04-24T01:48:40.414Z,91982.00
2023-04-24T01:49:40.660Z,91986.00
2023-04-24T01:50:40.371Z,91986.00
2023-04-24T01:51:40.346Z,91984.00
2023-04-24T01:52:40.377Z,91984.00
2023-04-24T01:53:40.397Z,91984.00
2023-04-24T01:54:40.269Z,91986.00
2023-04-24T01:55:40.247Z,91986.00
2023-04-24T01:56:40.225Z,91984.00
2023-04-24T01:57:40.197Z,91984.00
2023-04-24T01:58:40.194Z,91984.00
2023-04-24T01:59:40.330Z,91984.00
2023-04-24T02:00:40.189Z,91982.00
2023-04-24T02:01:40.122Z,91980.00
2023-04-24T02:02:40.259Z,91984.00
2023-04-24T02:03:40.289Z,91982.00
2023-04-24T02:04:40.057Z,91978.00
2023-04-24T02:05:40.046Z,91978.00
2023-04-24T02:06:40.007Z,91976.00
2023-04-24T02:07:39.982Z,91980.00
2023-04-24T02:08:39.970Z,91978.00
2023-04-24T02:09:39.948Z,91978.00
2023-04-24T02:10:39.906Z,91976.00
2023-04-24T02:11:39.892Z,91974.00
2023-04-24T02:12:39.891Z,91978.00
2023-04-24T02:13:39.844Z,91976.00
2023-04-24T02:14:39.818Z,91976.00
2023-04-24T02:15:39.795Z,91978.00
2023-04-24T02:16:39.801Z,91978.00
2023-04-24T02:17:39.763Z,91978.00
2023-04-24T02:18:39.732Z,91978.00
2023-04-24T02:19:39.729Z,91978.00
2023-04-24T02:20:39.690Z,91984.00
2023-04-24T02:21:39.669Z,91980.00
2023-04-24T02:22:39.643Z,91982.00
2023-04-24T02:23:39.633Z,91980.00
2023-04-24T02:24:39.599Z,91982.00
2023-04-24T02:25:39.572Z,91982.00
2023-04-24T02:26:39.555Z,91984.00
2023-04-24T02:27:39.545Z,91980.00
2023-04-24T02:28:39.500Z,91980.00
2023-04-24T02:29:39.487Z,91980.00
2023-04-24T02:30:39.452Z,91978.00
2023-04-24T02:31:39.467Z,91980.00
2023-04-24T02:32:39.401Z,91980.00
2023-04-24T02:33:39.400Z,91980.00
2023-04-24T02:34:39.354Z,91978.00
2023-04-24T02:35:39.446Z,91978.00
2023-04-24T02:36:39.319Z,91976.00
2023-04-24T02:37:39.302Z,91976.00
2023-04-24T02:38:39.275Z,91978.00
2023-04-24T02:39:39.252Z,91980.00
2023-04-24T02:40:39.240Z,91982.00
2023-04-24T02:41:39.216Z,91982.00
2023-04-24T02:42:39.188Z,91978.00
2023-04-24T02:43:39.174Z,91982.00
2023-04-24T02:44:39.155Z,91982.00
2023-04-24T02:45:39.184Z,91982.00
2023-04-24T02:46:39.114Z,91984.00
2023-04-24T02:47:39.139Z,91984.00
2023-04-24T02:48:39.069Z,91984.00
2023-04-24T02:49:39.056Z,91982.00
2023-04-24T02:50:39.026Z,91980.00
2023-04-24T02:51:39.007Z,91980.00
2023-04-24T02:52:38.988Z,91980.00
2023-04-24T02:53:38.965Z,91982.00
2023-04-24T02:54:38.939Z,91982.00
2023-04-24T02:55:38.919Z,91980.00
2023-04-24T02:56:38.914Z,91978.00
2023-04-24T02:57:38.895Z,91978.00
2023-04-24T02:58:38.880Z,91978.00
2023-04-24T02:59:38.875Z,91974.00
2023-04-24T03:00:38.866Z,91974.00
2023-04-24T03:01:38.924Z,91974.00
2023-04-24T03:02:39.209Z,91974.00
2023-04-24T03:03:39.105Z,91972.00
2023-04-24T03:04:38.974Z,91968.00
2023-04-24T03:05:38.834Z,91970.00
2023-04-24T03:06:38.815Z,91964.00
2023-04-24T03:07:38.812Z,91964.00
2023-04-24T03:08:38.803Z,91964.00
2023-04-24T03:09:38.821Z,91962.00
2023-04-24T03:10:38.773Z,91962.00
2023-04-24T03:11:38.777Z,91966.00
2023-04-24T03:12:38.764Z,91966.00
2023-04-24T03:13:38.753Z,91968.00
2023-04-24T03:14:38.756Z,91968.00
2023-04-24T03:15:38.762Z,91970.00
2023-04-24T03:16:38.837Z,91970.00
2023-04-24T03:17:38.788Z,91970.00
2023-04-24T03:18:38.753Z,91972.00
2023-04-24T03:19:38.751Z,91972.00
2023-04-24T03:20:38.750Z,91974.00
2023-04-24T03:21:38.755Z,91974.00
2023-04-24T03:22:38.754Z,91974.00
2023-04-24T03:23:38.740Z,91972.00
2023-04-24T03:24:38.754Z,91970.00
2023-04-24T03:25:38.736Z,91970.00
2023-04-24T03:26:38.742Z,91970.00
2023-04-24T03:27:38.756Z,91970.00
2023-04-24T03:28:38.739Z,91968.00
2023-04-24T03:29:38.756Z,91970.00
2023-04-24T03:30:38.738Z,91972.00
2023-04-24T03:31:38.752Z,91972.00
2023-04-24T03:32:38.754Z,91974.00
2023-04-24T03:33:38.692Z,91974.00
2023-04-24T03:34:38.685Z,91970.00
2023-04-24T03:35:38.695Z,91974.00
2023-04-24T03:36:38.650Z,91974.00
2023-04-24T03:37:38.641Z,91974.00
2023-04-24T03:38:38.620Z,91982.00
2023-04-24T03:39:38.608Z,91980.00
2023-04-24T03:40:38.582Z,91980.00
2023-04-24T03:41:38.557Z,91980.00
2023-04-24T03:42:39.453Z,91982.00
2023-04-24T03:43:38.509Z,91980.00
2023-04-24T03:44:38.506Z,91980.00
2023-04-24T03:45:38.487Z,91980.00
2023-04-24T03:46:38.509Z,91982.00
2023-04-24T03:47:38.487Z,91984.00
2023-04-24T03:48:38.401Z,91986.00
2023-04-24T03:49:38.382Z,91984.00
2023-04-24T03:50:38.366Z,91988.00
2023-04-24T03:51:38.338Z,91986.00
2023-04-24T03:52:38.326Z,91986.00
2023-04-24T03:53:38.309Z,91988.00
2023-04-24T03:54:38.291Z,91984.00
2023-04-24T03:55:38.265Z,91988.00
2023-04-24T03:56:39.179Z,91986.00
2023-04-24T03:57:38.225Z,91986.00
2023-04-24T03:58:38.198Z,91986.00
2023-04-24T03:59:38.172Z,91984.00
2023-04-24T04:00:38.195Z,91984.00
2023-04-24T04:01:38.150Z,91984.00
2023-04-24T04:02:38.303Z,91986.00
2023-04-24T04:03:38.704Z,91986.00
2023-04-24T04:04:38.369Z,91984.00
2023-04-24T04:05:38.078Z,91982.00
2023-04-24T04:06:38.068Z,91984.00
2023-04-24T04:07:38.034Z,91986.00
2023-04-24T04:08:38.040Z,91988.00
2023-04-24T04:09:38.015Z,91988.00
2023-04-24T04:10:38.017Z,91990.00
2023-04-24T04:11:38.029Z,91992.00
2023-04-24T04:12:38.041Z,91992.00
2023-04-24T04:13:38.038Z,91996.00
2023-04-24T04:14:38.030Z,91994.00
2023-04-24T04:15:38.031Z,91998.00
2023-04-24T04:16:38.047Z,92000.00
2023-04-24T04:17:38.073Z,92000.00
2023-04-24T04:18:38.017Z,92000.00
2023-04-24T04:19:38.034Z,92002.00
2023-04-24T04:20:38.036Z,92000.00
2023-04-24T04:21:38.023Z,92002.00
2023-04-24T04:22:38.023Z,92006.00
2023-04-24T04:23:38.022Z,92004.00
2023-04-24T04:24:38.019Z,92006.00
2023-04-24T04:25:38.009Z,92006.00
2023-04-24T04:26:38.012Z,92004.00
2023-04-24T04:27:38.013Z,92004.00
2023-04-24T04:28:38.023Z,92009.00
2023-04-24T04:29:38.013Z,92008.00
2023-04-24T04:30:37.994Z,92009.00
2023-04-24T04:31:38.057Z,92006.00
2023-04-24T04:32:38.067Z,92008.00
2023-04-24T04:33:38.028Z,92008.00
2023-04-24T04:34:38.024Z,92008.00
2023-04-24T04:35:38.022Z,92009.00
2023-04-24T04:36:38.145Z,92008.00
2023-04-24T04:37:38.034Z,92009.00
2023-04-24T04:38:39.902Z,92008.00
2023-04-24T04:39:38.001Z,92008.00
2023-04-24T04:40:37.988Z,92011.00
2023-04-24T04:41:37.978Z,92011.00
2023-04-24T04:42:37.961Z,92011.00
2023-04-24T04:43:37.950Z,92017.00
2023-04-24T04:44:37.937Z,92017.00
2023-04-24T04:45:37.955Z,92019.00
2023-04-24T04:46:37.891Z,92021.00
2023-04-24T04:47:38.014Z,92021.00
2023-04-24T04:48:37.877Z,92023.00
2023-04-24T04:49:38.702Z,92023.00
2023-04-24T04:50:37.844Z,92025.00
2023-04-24T04:51:37.821Z,92025.00
2023-04-24T04:52:37.813Z,92027.00
2023-04-24T04:53:37.804Z,92027.00
2023-04-24T04:54:37.779Z,92029.00
2023-04-24T04:55:37.756Z,92031.00
2023-04-24T04:56:37.761Z,92033.00
2023-04-24T04:57:37.749Z,92035.00
2023-04-24T04:58:37.717Z,92035.00
2023-04-24T04:59:37.723Z,92037.00
2023-04-24T05:00:37.684Z,92037.00
2023-04-24T05:01:37.810Z,92039.00
2023-04-24T05:02:37.913Z,92037.00
2023-04-24T05:03:38.110Z,92039.00
2023-04-24T05:04:37.914Z,92039.00
2023-04-24T05:05:37.630Z,92041.00
2023-04-24T05:06:37.615Z,92045.00
2023-04-24T05:07:37.579Z,92045.00
2023-04-24T05:08:37.571Z,92045.00
2023-04-24T05:09:37.558Z,92043.00
2023-04-24T05:10:37.537Z,92043.00
2023-04-24T05:11:37.525Z,92041.00
2023-04-24T05:12:37.514Z,92037.00
2023-04-24T05:13:40.490Z,92037.00
2023-04-24T05:14:37.482Z,92039.00
2023-04-24T05:15:37.477Z,92037.00
2023-04-24T05:16:37.482Z,92039.00
2023-04-24T05:17:37.463Z,92039.00
2023-04-24T05:18:37.422Z,92037.00
2023-04-24T05:19:37.409Z,92039.00
2023-04-24T05:20:37.398Z,92037.00
2023-04-24T05:21:37.388Z,92033.00
2023-04-24T05:22:37.382Z,92035.00
2023-04-24T05:23:37.403Z,92039.00
2023-04-24T05:24:37.371Z,92037.00
2023-04-24T05:25:37.377Z,92037.00
2023-04-24T05:26:37.382Z,92037.00
2023-04-24T05:27:37.385Z,92037.00
2023-04-24T05:28:37.380Z,92037.00
2023-04-24T05:29:37.355Z,92039.00
2023-04-24T05:30:37.359Z,92035.00
2023-04-24T05:31:37.451Z,92037.00
2023-04-24T05:32:37.390Z,92037.00
2023-04-24T05:33:37.379Z,92037.00
2023-04-24T05:34:37.393Z,92037.00
2023-04-24T05:35:37.358Z,92037.00
2023-04-24T05:36:37.368Z,92039.00
2023-04-24T05:37:38.220Z,92041.00
2023-04-24T05:38:37.369Z,92041.00
2023-04-24T05:39:37.380Z,92039.00
2023-04-24T05:40:37.387Z,92039.00
2023-04-24T05:41:37.392Z,92039.00
2023-04-24T05:42:40.747Z,92041.00
2023-04-24T05:43:37.402Z,92035.00
2023-04-24T05:44:38.252Z,92039.00
2023-04-24T05:45:37.451Z,92037.00
2023-04-24T05:46:37.507Z,92037.00
2023-04-24T05:47:37.495Z,92041.00
2023-04-24T05:48:37.490Z,92043.00
2023-04-24T05:49:37.558Z,92041.00
2023-04-24T05:50:37.564Z,92041.00
2023-04-24T05:51:37.589Z,92041.00
2023-04-24T05:52:37.606Z,92043.00
2023-04-24T05:53:37.626Z,92043.00
2023-04-24T05:54:37.635Z,92041.00
2023-04-24T05:55:37.626Z,92041.00
2023-04-24T05:56:37.657Z,92043.00
2023-04-24T05:57:37.649Z,92043.00
2023-04-24T05:58:37.648Z,92047.00
2023-04-24T05:59:37.681Z,92051.00
2023-04-24T06:00:37.683Z,92055.00
2023-04-24T06:01:37.748Z,92053.00
2023-04-24T06:02:37.988Z,92055.00
2023-04-24T06:03:38.097Z,92057.00
2023-04-24T06:04:38.169Z,92061.00
2023-04-24T06:05:38.001Z,92063.00
2023-04-24T06:06:38.245Z,92063.00
2023-04-24T06:07:38.117Z,92064.00
2023-04-24T06:08:38.199Z,92070.00
2023-04-24T06:09:38.292Z,92070.00
2023-04-24T06:10:38.326Z,92066.00
2023-04-24T06:11:38.408Z,92068.00
2023-04-24T06:12:38.463Z,92066.00
2023-04-24T06:13:38.520Z,92070.00
2023-04-24T06:14:38.586Z,92070.00
2023-04-24T06:15:41.241Z,92064.00
2023-04-24T06:16:38.902Z,92070.00
2023-04-24T06:17:38.981Z,92068.00
2023-04-24T06:18:39.002Z,92078.00
2023-04-24T06:19:39.074Z,92078.00
2023-04-24T06:20:39.112Z,92082.00
2023-04-24T06:21:39.174Z,92084.00
2023-04-24T06:22:39.236Z,92084.00
2023-04-24T06:23:39.929Z,92088.00
2023-04-24T06:24:39.341Z,92088.00
2023-04-24T06:25:39.364Z,92090.00
2023-04-24T06:26:39.374Z,92088.00
2023-04-24T06:27:39.385Z,92088.00
2023-04-24T06:28:39.404Z,92086.00
2023-04-24T06:29:39.468Z,92084.00
2023-04-24T06:30:39.528Z,92084.00
2023-04-24T06:31:39.638Z,92084.00
2023-04-24T06:32:39.668Z,92082.00
2023-04-24T06:33:39.731Z,92080.00
2023-04-24T06:34:39.758Z,92082.00
2023-04-24T06:35:39.815Z,92070.00
2023-04-24T06:36:39.945Z,92068.00
2023-04-24T06:37:39.903Z,92066.00
2023-04-24T06:38:39.977Z,92063.00
2023-04-24T06:39:40.041Z,92063.00
2023-04-24T06:40:40.061Z,92061.00
2023-04-24T06:41:40.077Z,92061.00
2023-04-24T06:42:40.382Z,92059.00
2023-04-24T06:43:40.157Z,92061.00
2023-04-24T06:44:40.181Z,92061.00
2023-04-24T06:45:40.290Z,92061.00
2023-04-24T06:46:41.808Z,92061.00
2023-04-24T06:47:40.315Z,92061.00
2023-04-24T06:48:40.284Z,92059.00
2023-04-24T06:49:40.323Z,92057.00
2023-04-24T06:50:40.353Z,92055.00
2023-04-24T06:51:40.391Z,92049.00
2023-04-24T06:52:40.415Z,92051.00
2023-04-24T06:53:40.442Z,92049.00
2023-04-24T06:54:41.171Z,92053.00
2023-04-24T06:55:40.515Z,92053.00
2023-04-24T06:56:40.569Z,92055.00
2023-04-24T06:57:40.553Z,92057.00
2023-04-24T06:58:40.576Z,92055.00
2023-04-24T06:59:40.714Z,92057.00
2023-04-24T07:00:40.635Z,92055.00
2023-04-24T07:01:40.679Z,92053.00
2023-04-24T07:02:40.796Z,92053.00
2023-04-24T07:03:40.826Z,92053.00
2023-04-24T07:04:40.906Z,92053.00
2023-04-24T07:05:40.856Z,92053.00
2023-04-24T07:06:40.787Z,92051.00
2023-04-24T07:07:40.816Z,92051.00
2023-04-24T07:08:40.886Z,92051.00
2023-04-24T07:09:41.018Z,92049.00
2023-04-24T07:10:40.891Z,92051.00
2023-04-24T07:11:41.009Z,92051.00
2023-04-24T07:12:40.954Z,92059.00
2023-04-24T07:13:40.984Z,92059.00
2023-04-24T07:14:41.024Z,92061.00
2023-04-24T07:15:41.072Z,92061.00
2023-04-24T07:16:41.193Z,92063.00
2023-04-24T07:17:41.101Z,92061.00
2023-04-24T07:18:41.119Z,92061.00
2023-04-24T07:19:41.280Z,92063.00
2023-04-24T07:20:41.181Z,92063.00
2023-04-24T07:21:41.192Z,92061.00
2023-04-24T07:22:41.324Z,92057.00
2023-04-24T07:23:41.238Z,92061.00
2023-04-24T07:24:41.249Z,92057.00
2023-04-24T07:25:41.270Z,92063.00
2023-04-24T07:26:41.312Z,92061.00
2023-04-24T07:27:42.253Z,92061.00
2023-04-24T07:28:41.353Z,92055.00
2023-04-24T07:29:41.762Z,92057.00
2023-04-24T07:30:41.407Z,92061.00
2023-04-24T07:31:41.515Z,92059.00
2023-04-24T07:32:41.478Z,92063.00
2023-04-24T07:33:41.484Z,92061.00
2023-04-24T07:34:41.521Z,92059.00
2023-04-24T07:35:41.525Z,92061.00
2023-04-24T07:36:41.554Z,92061.00
2023-04-24T07:37:41.569Z,92061.00
2023-04-24T07:38:41.581Z,92057.00
2023-04-24T07:39:41.859Z,92059.00
2023-04-24T07:40:41.623Z,92059.00
2023-04-24T07:41:41.653Z,92055.00
2023-04-24T07:42:41.665Z,92057.00
2023-04-24T07:43:41.678Z,92057.00
2023-04-24T07:44:41.693Z,92055.00
2023-04-24T07:45:41.717Z,92057.00
2023-04-24T07:46:41.773Z,92057.00
2023-04-24T07:47:42.284Z,92057.00
2023-04-24T07:48:41.772Z,92059.00
2023-04-24T07:49:41.963Z,92061.00
2023-04-24T07:50:41.807Z,92059.00
2023-04-24T07:51:41.825Z,92055.00
2023-04-24T07:52:41.836Z,92053.00
2023-04-24T07:53:41.851Z,92051.00
2023-04-24T07:54:42.157Z,92051.00
2023-04-24T07:55:41.876Z,92051.00
2023-04-24T07:56:41.896Z,92053.00
2023-04-24T07:57:41.924Z,92055.00
2023-04-24T07:58:41.933Z,92053.00
2023-04-24T07:59:42.318Z,92053.00
2023-04-24T08:00:41.975Z,92053.00
2023-04-24T08:01:41.991Z,92053.00
2023-04-24T08:02:42.177Z,92053.00
2023-04-24T08:03:42.256Z,92055.00
2023-04-24T08:04:42.257Z,92051.00
2023-04-24T08:05:42.109Z,92049.00
2023-04-24T08:06:42.065Z,92049.00
2023-04-24T08:07:42.078Z,92049.00
2023-04-24T08:08:42.100Z,92049.00
2023-04-24T08:09:42.322Z,92049.00
2023-04-24T08:10:42.136Z,92051.00
2023-04-24T08:11:42.138Z,92051.00
2023-04-24T08:12:42.155Z,92053.00
2023-04-24T08:13:42.156Z,92053.00
2023-04-24T08:14:42.493Z,92057.00
2023-04-24T08:15:42.269Z,92059.00
2023-04-24T08:16:42.306Z,92063.00
2023-04-24T08:17:42.244Z,92063.00
2023-04-24T08:18:42.630Z,92064.00
2023-04-24T08:19:42.450Z,92066.00
2023-04-24T08:20:42.260Z,92066.00
2023-04-24T08:21:42.248Z,92068.00
2023-04-24T08:22:42.278Z,92068.00
2023-04-24T08:23:42.259Z,92068.00
2023-04-24T08:24:42.269Z,92070.00
2023-04-24T08:25:42.287Z,92070.00
2023-04-24T08:26:42.280Z,92066.00
2023-04-24T08:27:42.273Z,92066.00
2023-04-24T08:28:42.281Z,92064.00
2023-04-24T08:29:42.541Z,92064.00
2023-04-24T08:30:42.331Z,92064.00
2023-04-24T08:31:42.308Z,92066.00
2023-04-24T08:32:42.311Z,92068.00
2023-04-24T08:33:42.299Z,92063.00
2023-04-24T08:34:42.297Z,92066.00
2023-04-24T08:35:42.294Z,92070.00
2023-04-24T08:36:46.972Z,92078.00
2023-04-24T08:37:43.301Z,92070.00
2023-04-24T08:38:43.310Z,92070.00
2023-04-24T08:39:42.421Z,92068.00
2023-04-24T08:40:42.225Z,92068.00
2023-04-24T08:41:42.210Z,92070.00
2023-04-24T08:42:42.184Z,92078.00
2023-04-24T08:43:42.154Z,92080.00
2023-04-24T08:44:42.142Z,92084.00
2023-04-24T08:45:42.271Z,92082.00
2023-04-24T08:46:42.182Z,92080.00
2023-04-24T08:47:42.162Z,92070.00
2023-04-24T08:48:42.094Z,92070.00
2023-04-24T08:49:42.220Z,92068.00
2023-04-24T08:50:42.052Z,92068.00
2023-04-24T08:51:42.050Z,92063.00
2023-04-24T08:52:42.022Z,92055.00
2023-04-24T08:53:42.026Z,92053.00
2023-04-24T08:54:42.005Z,92043.00
2023-04-24T08:55:41.993Z,92047.00
2023-04-24T08:56:42.287Z,92051.00
2023-04-24T08:57:41.978Z,92059.00
2023-04-24T08:58:42.779Z,92051.00
2023-04-24T08:59:42.105Z,92047.00
2023-04-24T09:00:41.942Z,92045.00
2023-04-24T09:01:41.984Z,92045.00
2023-04-24T09:02:42.895Z,92041.00
2023-04-24T09:03:42.046Z,92043.00
2023-04-24T09:04:42.008Z,92049.00
2023-04-24T09:05:41.925Z,92041.00
2023-04-24T09:06:41.936Z,92043.00
2023-04-24T09:07:41.928Z,92047.00
2023-04-24T09:08:41.942Z,92049.00
2023-04-24T09:09:42.099Z,92047.00
2023-04-24T09:10:41.960Z,92049.00
2023-04-24T09:11:41.958Z,92051.00
2023-04-24T09:12:41.961Z,92049.00
2023-04-24T09:13:42.730Z,92045.00
2023-04-24T09:14:41.933Z,92045.00
2023-04-24T09:15:41.922Z,92045.00
2023-04-24T09:16:41.930Z,92047.00
2023-04-24T09:17:41.928Z,92053.00
2023-04-24T09:18:41.885Z,92053.00
2023-04-24T09:19:42.143Z,92055.00
2023-04-24T09:20:41.854Z,92055.00
2023-04-24T09:21:41.861Z,92055.00
2023-04-24T09:22:42.805Z,92055.00
2023-04-24T09:23:42.799Z,92055.00
2023-04-24T09:24:42.802Z,92055.00
2023-04-24T09:25:41.774Z,92061.00
2023-04-24T09:26:41.773Z,92057.00
2023-04-24T09:27:41.786Z,92051.00
2023-04-24T09:28:41.752Z,92049.00
2023-04-24T09:29:41.931Z,92053.00
2023-04-24T09:30:41.709Z,92049.00
2023-04-24T09:31:41.742Z,92047.00
2023-04-24T09:32:41.739Z,92049.00
2023-04-24T09:33:41.661Z,92049.00
2023-04-24T09:34:42.217Z,92055.00
2023-04-24T09:35:41.621Z,92057.00
2023-04-24T09:36:49.299Z,92055.00
2023-04-24T09:37:41.574Z,92051.00
2023-04-24T09:38:41.558Z,92051.00
2023-04-24T09:39:56.300Z,92051.00
2023-04-24T09:40:41.701Z,92049.00
2023-04-24T09:41:42.257Z,92043.00
2023-04-24T09:42:41.492Z,92039.00
2023-04-24T09:43:41.575Z,92037.00
2023-04-24T09:44:41.640Z,92035.00
2023-04-24T09:45:41.542Z,92035.00
2023-04-24T09:46:41.519Z,92037.00
2023-04-24T09:47:41.461Z,92041.00
2023-04-24T09:48:41.385Z,92039.00
2023-04-24T09:49:41.676Z,92039.00
2023-04-24T09:50:41.341Z,92041.00
2023-04-24T09:51:41.294Z,92041.00
2023-04-24T09:52:41.277Z,92041.00
2023-04-24T09:53:41.806Z,92039.00
2023-04-24T09:54:41.304Z,92039.00
2023-04-24T09:55:41.333Z,92039.00
2023-04-24T09:56:41.362Z,92037.00
2023-04-24T09:57:41.454Z,92035.00
2023-04-24T09:58:41.413Z,92035.00
2023-04-24T09:59:41.660Z,92033.00
2023-04-24T10:00:42.313Z,92031.00
2023-04-24T10:01:41.545Z,92029.00
2023-04-24T10:02:41.571Z,92029.00
2023-04-24T10:03:41.567Z,92027.00
2023-04-24T10:04:41.509Z,92027.00
2023-04-24T10:05:41.472Z,92027.00
2023-04-24T10:06:41.450Z,92027.00
2023-04-24T10:07:44.373Z,92029.00
2023-04-24T10:08:41.400Z,92029.00
2023-04-24T10:09:41.556Z,92035.00
2023-04-24T10:10:41.347Z,92033.00
2023-04-24T10:11:41.333Z,92031.00
2023-04-24T10:12:41.323Z,92023.00
2023-04-24T10:13:41.312Z,92027.00
2023-04-24T10:14:42.878Z,92027.00
2023-04-24T10:15:41.542Z,92027.00
2023-04-24T10:16:41.557Z,92031.00
2023-04-24T10:17:42.359Z,92027.00
2023-04-24T10:18:41.642Z,92035.00
2023-04-24T10:19:41.781Z,92031.00
2023-04-24T10:20:41.671Z,92039.00
2023-04-24T10:21:41.662Z,92053.00
2023-04-24T10:22:41.699Z,92045.00
2023-04-24T10:23:41.690Z,92047.00
2023-04-24T10:24:41.863Z,92055.00
2023-04-24T10:25:41.699Z,92055.00
2023-04-24T10:26:41.681Z,92053.00
2023-04-24T10:27:41.661Z,92061.00
2023-04-24T10:28:41.669Z,92061.00
2023-04-24T10:29:41.652Z,92064.00
2023-04-24T10:30:42.327Z,92078.00
2023-04-24T10:31:41.689Z,92093.00
2023-04-24T10:32:41.666Z,92099.00
2023-04-24T10:33:41.603Z,92095.00
2023-04-24T10:34:41.592Z,92093.00
2023-04-24T10:35:42.245Z,92086.00
2023-04-24T10:36:41.570Z,92090.00
2023-04-24T10:37:42.331Z,92088.00
2023-04-24T10:38:41.569Z,92084.00
2023-04-24T10:39:41.565Z,92080.00
2023-04-24T10:40:41.541Z,92070.00
2023-04-24T10:41:41.509Z,92066.00
2023-04-24T10:42:41.509Z,92064.00
2023-04-24T10:43:41.491Z,92063.00
2023-04-24T10:44:41.473Z,92061.00
2023-04-24T10:45:41.449Z,92059.00
2023-04-24T10:46:42.307Z,92057.00
2023-04-24T10:47:41.483Z,92055.00
2023-04-24T10:48:41.425Z,92055.00
2023-04-24T10:49:41.479Z,92049.00
2023-04-24T10:50:41.437Z,92049.00
2023-04-24T10:51:41.389Z,92049.00
2023-04-24T10:52:41.422Z,92051.00
2023-04-24T10:53:41.347Z,92051.00
2023-04-24T10:54:42.324Z,92041.00
2023-04-24T10:55:41.347Z,92047.00
2023-04-24T10:56:41.327Z,92043.00
2023-04-24T10:57:41.312Z,92039.00
2023-04-24T10:58:41.347Z,92045.00
2023-04-24T10:59:41.307Z,92043.00
2023-04-24T11:00:41.306Z,92039.00
2023-04-24T11:01:41.271Z,92043.00
2023-04-24T11:02:41.406Z,92039.00
2023-04-24T11:03:41.362Z,92031.00
2023-04-24T11:04:41.286Z,92035.00
2023-04-24T11:05:41.243Z,92035.00
2023-04-24T11:06:41.220Z,92037.00
2023-04-24T11:07:41.208Z,92029.00
2023-04-24T11:08:41.197Z,92043.00
2023-04-24T11:09:41.193Z,92039.00
2023-04-24T11:10:41.198Z,92035.00
2023-04-24T11:11:41.264Z,92037.00
2023-04-24T11:12:41.172Z,92035.00
2023-04-24T11:13:41.158Z,92041.00
2023-04-24T11:14:41.142Z,92037.00
2023-04-24T11:15:41.132Z,92043.00
2023-04-24T11:16:41.146Z,92041.00
2023-04-24T11:17:41.104Z,92047.00
2023-04-24T11:18:41.093Z,92035.00
2023-04-24T11:19:41.062Z,92045.00
2023-04-24T11:20:41.052Z,92039.00
2023-04-24T11:21:41.026Z,92039.00
2023-04-24T11:22:41.010Z,92039.00
2023-04-24T11:23:40.986Z,92043.00
2023-04-24T11:24:40.975Z,92041.00
2023-04-24T11:25:40.975Z,92039.00
2023-04-24T11:26:40.992Z,92045.00
2023-04-24T11:27:40.935Z,92043.00
2023-04-24T11:28:42.416Z,92043.00
2023-04-24T11:29:40.903Z,92053.00
2023-04-24T11:30:40.891Z,92045.00
2023-04-24T11:31:40.908Z,92051.00
2023-04-24T11:32:41.065Z,92057.00
2023-04-24T11:33:40.828Z,92049.00
2023-04-24T11:34:40.814Z,92037.00
2023-04-24T11:35:40.821Z,92039.00
2023-04-24T11:36:40.793Z,92057.00
2023-04-24T11:37:40.779Z,92049.00
2023-04-24T11:38:40.759Z,92047.00
2023-04-24T11:39:40.741Z,92057.00
2023-04-24T11:40:40.729Z,92045.00
2023-04-24T11:41:40.718Z,92047.00
2023-04-24T11:42:40.707Z,92049.00
2023-04-24T11:43:40.724Z,92039.00
2023-04-24T11:44:40.656Z,92049.00